Time;durP1;ratioP1;P1;durP2;ratioP2;P2;SDS_P1;SDS_P2;PMS_P1;PMS_P2;Temp;Humidity;BMP_temperature;BMP_pressure;BME280_temperature;BME280_humidity;BME280_pressure;Samples;Min_cycle;Max_cycle;Signal;HPM_P1;HPM_P2
2023/04/25 00:02:03;;;;;;;3.17;1.30;;;13.20;38.70;;;;;;5015128;28;20177;-72
2023/04/25 00:04:29;;;;;;;2.70;1.20;;;13.50;37.90;;;;;;5011925;28;20661;-72
2023/04/25 00:06:55;;;;;;;3.00;1.40;;;13.20;35.30;;;;;;5019356;28;20200;-72
2023/04/25 00:09:21;;;;;;;3.00;1.40;;;13.30;35.40;;;;;;5008833;28;20508;-72
2023/04/25 00:11:47;;;;;;;2.90;1.40;;;13.30;36.80;;;;;;5004800;28;20431;-72
2023/04/25 00:14:13;;;;;;;5.20;1.97;;;13.20;37.30;;;;;;5012937;28;20423;-72
2023/04/25 00:16:40;;;;;;;2.70;1.10;;;13.40;38.50;;;;;;5015248;28;20324;-72
2023/04/25 00:19:07;;;;;;;2.70;1.20;;;13.00;38.30;;;;;;5015474;28;20407;-72
2023/04/25 00:21:33;;;;;;;3.00;1.50;;;13.10;38.60;;;;;;5015638;28;20435;-72
2023/04/25 00:23:59;;;;;;;2.80;1.30;;;13.10;37.40;;;;;;5013516;28;20439;-72
2023/04/25 00:26:24;;;;;;;2.80;1.20;;;13.30;37.60;;;;;;5012781;28;20494;-72
2023/04/25 00:28:50;;;;;;;2.80;1.20;;;13.30;39.00;;;;;;5015036;28;20962;-72
2023/04/25 00:31:16;;;;;;;2.90;1.30;;;13.20;37.60;;;;;;5012565;28;20184;-72
2023/04/25 00:33:41;;;;;;;2.80;1.20;;;13.30;38.70;;;;;;5010981;28;20217;-72
2023/04/25 00:36:08;;;;;;;2.90;1.30;;;13.20;35.90;;;;;;5016248;28;20730;-72
2023/04/25 00:38:33;;;;;;;2.90;1.30;;;13.30;36.90;;;;;;5015886;28;20648;-72
2023/04/25 00:40:59;;;;;;;4.23;1.50;;;13.50;39.10;;;;;;5013921;28;20519;-72
2023/04/25 00:43:30;;;;;;;2.90;1.20;;;13.20;36.80;;;;;;5012020;28;20192;-73
2023/04/25 00:45:57;;;;;;;3.00;1.30;;;13.20;35.30;;;;;;5014721;28;20625;-73
2023/04/25 00:48:23;;;;;;;2.80;1.20;;;12.60;34.80;;;;;;5014756;28;20466;-72
2023/04/25 00:50:56;;;;;;;2.83;1.20;;;12.50;35.00;;;;;;5014695;28;20412;-72
2023/04/25 00:53:22;;;;;;;3.50;1.40;;;12.60;36.30;;;;;;5012770;28;20683;-72
2023/04/25 00:55:50;;;;;;;2.80;1.23;;;12.40;34.60;;;;;;5012648;28;20456;-72
2023/04/25 00:58:20;;;;;;;3.23;1.43;;;12.70;34.90;;;;;;5013796;28;20439;-72
2023/04/25 01:00:47;;;;;;;2.90;1.30;;;12.50;34.70;;;;;;4995047;28;20421;-72
2023/04/25 01:03:15;;;;;;;2.80;1.20;;;13.20;37.80;;;;;;4993981;28;20441;-72
2023/04/25 01:05:42;;;;;;;2.90;1.33;;;13.10;33.90;;;;;;5019704;28;20482;-72
2023/04/25 01:08:08;;;;;;;2.80;1.20;;;12.90;35.00;;;;;;5012873;28;20471;-72
2023/04/25 01:10:33;;;;;;;2.80;1.20;;;13.10;35.00;;;;;;5012332;28;20477;-72
2023/04/25 01:12:59;;;;;;;2.90;1.27;;;13.10;35.20;;;;;;5013405;28;20899;-72
2023/04/25 01:15:25;;;;;;;2.90;1.40;;;12.40;35.60;;;;;;5018816;28;20235;-72
2023/04/25 01:17:50;;;;;;;2.77;1.27;;;12.60;35.80;;;;;;5013412;28;20280;-72
2023/04/25 01:20:16;;;;;;;2.70;1.20;;;12.70;34.90;;;;;;5012271;28;20174;-72
2023/04/25 01:22:43;;;;;;;3.47;1.70;;;13.10;35.20;;;;;;5012169;28;20177;-72
2023/04/25 01:25:09;;;;;;;2.90;1.33;;;13.40;37.00;;;;;;5008787;28;20221;-72
2023/04/25 01:27:36;;;;;;;2.90;1.40;;;13.50;35.60;;;;;;5011534;28;20436;-72
2023/04/25 01:30:03;;;;;;;3.57;1.40;;;13.50;38.20;;;;;;5013309;28;20468;-72
2023/04/25 01:32:31;;;;;;;2.90;1.30;;;13.30;36.50;;;;;;5013888;28;20761;-72
2023/04/25 01:34:56;;;;;;;2.80;1.20;;;13.50;37.60;;;;;;5004964;28;20452;-72
2023/04/25 01:37:22;;;;;;;2.90;1.30;;;13.20;37.10;;;;;;5006270;28;20432;-72
2023/04/25 01:39:49;;;;;;;3.20;1.63;;;13.50;36.90;;;;;;5011894;28;20189;-72
2023/04/25 01:42:15;;;;;;;3.00;1.40;;;13.30;35.60;;;;;;5013787;28;20203;-72
2023/04/25 01:44:41;;;;;;;2.80;1.20;;;13.50;34.70;;;;;;5012499;28;20952;-72
2023/04/25 01:47:07;;;;;;;3.00;1.30;;;13.30;35.40;;;;;;5008073;28;20524;-72
2023/04/25 01:49:32;;;;;;;2.80;1.23;;;13.30;35.00;;;;;;5015721;28;20220;-72
2023/04/25 01:51:58;;;;;;;2.90;1.30;;;13.40;35.50;;;;;;5033472;28;20183;-72
2023/04/25 01:54:24;;;;;;;3.00;1.43;;;13.40;36.50;;;;;;5021448;28;20229;-72
2023/04/25 01:56:52;;;;;;;2.90;1.30;;;13.80;33.60;;;;;;5009776;28;20189;-72
2023/04/25 01:59:19;;;;;;;2.70;1.10;;;13.20;32.70;;;;;;5010065;28;20264;-72
2023/04/25 02:01:45;;;;;;;2.80;1.20;;;12.80;33.40;;;;;;5013431;28;20436;-72
2023/04/25 02:04:11;;;;;;;2.70;1.07;;;13.10;35.70;;;;;;5012473;28;20503;-73
2023/04/25 02:06:36;;;;;;;2.80;1.23;;;12.80;35.00;;;;;;5013582;28;20182;-73
2023/04/25 02:09:02;;;;;;;2.80;1.30;;;13.20;36.00;;;;;;5003684;28;20536;-73
2023/04/25 02:11:27;;;;;;;3.53;1.40;;;13.00;36.30;;;;;;5009782;28;20193;-73
2023/04/25 02:13:53;;;;;;;2.70;1.10;;;13.10;34.00;;;;;;5012394;28;20948;-73
2023/04/25 02:16:19;;;;;;;2.93;1.33;;;12.80;35.00;;;;;;5013227;28;20197;-72
2023/04/25 02:18:44;;;;;;;2.87;1.30;;;13.10;35.30;;;;;;5008228;28;20652;-72
2023/04/25 02:21:11;;;;;;;2.80;1.20;;;13.20;34.20;;;;;;5012416;28;20189;-72
2023/04/25 02:23:37;;;;;;;3.03;1.40;;;12.90;35.00;;;;;;5031413;28;20173;-72
2023/04/25 02:26:02;;;;;;;3.00;1.40;;;13.00;34.30;;;;;;5027796;28;20457;-72
2023/04/25 02:28:28;;;;;;;2.90;1.30;;;12.70;34.90;;;;;;5008781;28;20223;-72
2023/04/25 02:30:53;;;;;;;2.90;1.30;;;12.90;34.90;;;;;;5008512;28;20188;-72
2023/04/25 02:33:20;;;;;;;2.80;1.30;;;13.00;35.10;;;;;;5012272;28;20553;-73
2023/04/25 02:35:46;;;;;;;2.83;1.23;;;13.00;34.10;;;;;;5011831;28;20197;-73
2023/04/25 02:38:12;;;;;;;2.90;1.40;;;13.10;34.50;;;;;;5012595;28;20907;-73
2023/04/25 02:40:37;;;;;;;3.00;1.30;;;13.40;34.70;;;;;;5011930;28;20559;-72
2023/04/25 02:43:03;;;;;;;2.80;1.30;;;13.40;35.50;;;;;;5011189;28;20185;-72
2023/04/25 02:45:28;;;;;;;3.00;1.50;;;13.10;33.60;;;;;;5013229;28;20211;-72
2023/04/25 02:47:54;;;;;;;3.57;1.40;;;13.50;33.80;;;;;;5012392;28;20189;-72
2023/04/25 02:50:20;;;;;;;2.80;1.37;;;13.60;33.50;;;;;;5009987;28;20196;-72
2023/04/25 02:52:45;;;;;;;2.80;1.30;;;13.30;34.40;;;;;;5010771;28;20604;-72
2023/04/25 02:55:12;;;;;;;2.70;1.20;;;13.10;36.00;;;;;;5018601;28;20271;-72
2023/04/25 02:57:37;;;;;;;2.80;1.30;;;13.10;35.20;;;;;;5012503;28;20182;-72
2023/04/25 03:00:05;;;;;;;2.80;1.30;;;13.30;36.20;;;;;;5012427;28;20417;-72
2023/04/25 03:02:30;;;;;;;3.10;1.57;;;13.10;36.50;;;;;;5006457;28;20178;-72
2023/04/25 03:04:56;;;;;;;2.73;1.20;;;13.30;33.70;;;;;;5011811;28;20455;-72
2023/04/25 03:07:21;;;;;;;3.37;1.40;;;13.00;34.40;;;;;;5011846;28;20184;-72
2023/04/25 03:09:47;;;;;;;2.70;1.20;;;13.00;36.00;;;;;;5012085;28;20209;-72
2023/04/25 03:12:12;;;;;;;3.43;1.50;;;12.90;35.00;;;;;;5011019;28;20629;-72
2023/04/25 03:14:38;;;;;;;2.77;1.20;;;12.90;35.40;;;;;;5011458;28;20209;-72
2023/04/25 03:17:04;;;;;;;2.70;1.30;;;12.80;36.70;;;;;;5011946;28;20645;-72
2023/04/25 03:19:30;;;;;;;2.80;1.20;;;12.60;36.40;;;;;;5012289;28;20566;-72
2023/04/25 03:21:55;;;;;;;2.80;1.20;;;12.70;34.90;;;;;;5011148;28;20196;-72
2023/04/25 03:24:21;;;;;;;3.63;1.80;;;12.70;34.90;;;;;;5008160;28;20537;-72
2023/04/25 03:26:47;;;;;;;2.73;1.17;;;12.70;36.40;;;;;;5011936;28;20623;-72
2023/04/25 03:29:13;;;;;;;3.20;1.30;;;13.00;38.10;;;;;;5010988;28;20471;-72
2023/04/25 03:31:38;;;;;;;2.80;1.40;;;12.80;35.00;;;;;;5011820;28;20185;-72
2023/04/25 03:34:04;;;;;;;3.10;1.50;;;13.20;37.80;;;;;;5009403;28;20645;-72
2023/04/25 03:36:29;;;;;;;5.10;2.07;;;12.60;37.00;;;;;;5010698;28;20197;-72
2023/04/25 03:38:55;;;;;;;3.00;1.30;;;12.90;36.00;;;;;;5005130;28;20185;-72
2023/04/25 03:41:21;;;;;;;2.77;1.10;;;12.80;35.80;;;;;;5013845;28;20235;-72
2023/04/25 03:43:46;;;;;;;2.77;1.20;;;13.30;37.00;;;;;;5002909;28;20189;-72
2023/04/25 03:46:12;;;;;;;3.67;1.77;;;13.20;38.60;;;;;;5011588;28;20218;-72
2023/04/25 03:48:37;;;;;;;2.77;1.13;;;13.10;36.90;;;;;;5010467;28;20244;-72
2023/04/25 03:51:03;;;;;;;6.70;2.03;;;12.80;37.60;;;;;;5011672;28;20268;-72
2023/04/25 03:53:29;;;;;;;2.90;1.20;;;12.70;38.50;;;;;;5001737;28;20276;-72
2023/04/25 03:55:54;;;;;;;2.90;1.20;;;12.90;40.00;;;;;;5011634;28;20631;-72
2023/04/25 03:58:20;;;;;;;3.00;1.37;;;12.60;39.60;;;;;;5011806;28;20203;-72
2023/04/25 04:00:45;;;;;;;3.50;1.90;;;12.50;39.30;;;;;;5018437;28;20196;-72
2023/04/25 04:03:11;;;;;;;3.40;1.50;;;12.50;39.20;;;;;;5011961;28;20251;-72
2023/04/25 04:05:37;;;;;;;3.17;1.40;;;13.00;40.00;;;;;;5007771;28;20229;-72
2023/04/25 04:08:03;;;;;;;2.90;1.20;;;12.70;36.70;;;;;;5010329;28;20177;-72
2023/04/25 04:10:28;;;;;;;3.00;1.30;;;12.70;37.60;;;;;;5011591;28;20230;-72
2023/04/25 04:12:54;;;;;;;2.90;1.27;;;12.70;37.90;;;;;;5009537;28;20529;-72
2023/04/25 04:15:19;;;;;;;3.07;1.43;;;12.70;38.70;;;;;;5007606;28;20331;-72
2023/04/25 04:17:46;;;;;;;2.90;1.20;;;12.50;39.60;;;;;;5023606;28;20180;-72
2023/04/25 04:20:12;;;;;;;4.05;1.73;;;12.40;39.80;;;;;;5031051;28;20210;-72
2023/04/25 04:22:37;;;;;;;3.00;1.30;;;12.90;38.70;;;;;;5030575;28;20176;-72
2023/04/25 04:25:05;;;;;;;3.00;1.20;;;12.90;39.10;;;;;;5007069;28;20216;-72
2023/04/25 04:27:31;;;;;;;3.90;1.70;;;12.40;39.10;;;;;;5045696;22;20227;-68
2023/04/25 04:29:57;;;;;;;3.10;1.30;;;12.70;40.20;;;;;;5027455;28;20550;-68
2023/04/25 04:32:23;;;;;;;3.20;1.30;;;12.60;38.60;;;;;;5027267;28;20526;-68
2023/04/25 04:34:49;;;;;;;3.10;1.30;;;12.60;38.90;;;;;;5026822;28;20177;-69
2023/04/25 04:37:14;;;;;;;3.30;1.40;;;12.70;39.10;;;;;;5019299;28;20938;-68
2023/04/25 04:39:40;;;;;;;3.30;1.20;;;12.70;38.60;;;;;;5011112;28;20221;-68
2023/04/25 04:42:06;;;;;;;3.20;1.30;;;12.60;39.00;;;;;;5011329;28;20730;-68
2023/04/25 04:44:32;;;;;;;3.40;1.40;;;12.70;38.60;;;;;;5009913;28;20400;-71
2023/04/25 04:46:59;;;;;;;3.10;1.30;;;12.80;38.80;;;;;;5014424;28;20553;-69
2023/04/25 04:49:24;;;;;;;3.10;1.30;;;12.80;35.80;;;;;;5004713;28;20457;-69
2023/04/25 04:51:50;;;;;;;3.00;1.20;;;12.90;35.00;;;;;;5013436;28;20419;-71
2023/04/25 04:54:16;;;;;;;4.70;1.50;;;12.90;35.90;;;;;;5014461;28;20188;-70
2023/04/25 04:56:41;;;;;;;2.97;1.20;;;12.90;37.30;;;;;;5017048;28;20450;-68
2023/04/25 04:59:07;;;;;;;3.60;1.40;;;12.90;36.20;;;;;;5024302;28;20263;-68
2023/04/25 05:01:35;;;;;;;2.90;1.20;;;12.90;36.00;;;;;;5014681;28;20653;-68
2023/04/25 05:04:02;;;;;;;3.00;1.27;;;12.90;35.00;;;;;;5027964;28;20473;-68
2023/04/25 05:06:31;;;;;;;3.40;1.50;;;12.80;35.70;;;;;;5023675;28;20461;-69
2023/04/25 05:08:57;;;;;;;3.93;1.50;;;12.90;36.70;;;;;;5033930;28;20496;-68
2023/04/25 05:11:24;;;;;;;3.20;1.40;;;12.90;34.10;;;;;;5032731;28;20455;-68
2023/04/25 05:13:51;;;;;;;3.30;1.30;;;13.20;35.30;;;;;;5019354;28;20428;-68
2023/04/25 05:16:17;;;;;;;3.10;1.30;;;13.00;36.70;;;;;;5021763;28;20448;-68
2023/04/25 05:18:43;;;;;;;3.00;1.10;;;13.10;35.30;;;;;;5014415;28;20408;-69
2023/04/25 05:21:08;;;;;;;3.70;1.40;;;13.20;35.00;;;;;;5014547;28;20185;-68
2023/04/25 05:23:34;;;;;;;4.67;1.80;;;12.60;34.80;;;;;;5014126;28;20193;-69
2023/04/25 05:26:00;;;;;;;3.10;1.20;;;12.40;34.90;;;;;;5019706;28;20205;-68
2023/04/25 05:28:26;;;;;;;3.00;1.20;;;12.20;37.20;;;;;;5014699;28;20256;-68
2023/04/25 05:30:52;;;;;;;3.27;1.40;;;12.00;37.20;;;;;;5023583;28;20932;-70
2023/04/25 05:33:18;;;;;;;3.20;1.33;;;11.80;36.70;;;;;;5024386;28;20181;-69
2023/04/25 05:35:43;;;;;;;3.00;1.13;;;12.10;36.70;;;;;;5021988;28;20413;-68
2023/04/25 05:38:09;;;;;;;5.60;1.40;;;12.30;36.50;;;;;;5013912;28;20455;-71
2023/04/25 05:40:35;;;;;;;2.90;1.10;;;12.50;37.00;;;;;;5014037;28;20585;-68
2023/04/25 05:43:00;;;;;;;4.33;1.50;;;12.10;37.40;;;;;;5017543;28;20255;-69
2023/04/25 05:45:26;;;;;;;2.90;1.20;;;12.90;37.80;;;;;;5014858;28;20216;-68
2023/04/25 05:47:52;;;;;;;3.10;1.27;;;13.10;35.10;;;;;;5033991;28;20264;-68
2023/04/25 05:50:17;;;;;;;3.50;1.50;;;13.30;35.30;;;;;;5033980;28;20543;-71
2023/04/25 05:52:43;;;;;;;2.97;1.30;;;13.30;35.40;;;;;;5018608;28;20613;-68
2023/04/25 05:55:09;;;;;;;2.90;1.20;;;13.80;35.80;;;;;;5021521;28;20181;-68
2023/04/25 05:57:35;;;;;;;3.30;1.30;;;13.60;34.30;;;;;;5032424;28;20231;-69
2023/04/25 06:00:00;;;;;;;3.00;1.40;;;13.40;34.70;;;;;;5025447;28;20177;-68
2023/04/25 06:02:26;;;;;;;5.73;2.20;;;13.10;35.30;;;;;;5011546;28;20189;-69
2023/04/25 06:04:52;;;;;;;2.70;1.20;;;13.20;35.30;;;;;;5024344;28;20172;-68
2023/04/25 06:07:21;;;;;;;3.20;1.37;;;13.00;34.10;;;;;;5033748;28;20200;-69
2023/04/25 06:09:46;;;;;;;3.20;1.60;;;12.90;35.10;;;;;;5033376;28;20192;-68
2023/04/25 06:12:12;;;;;;;3.10;1.50;;;13.00;35.10;;;;;;5025125;28;20518;-70
2023/04/25 06:14:37;;;;;;;2.70;1.27;;;12.90;35.00;;;;;;5021663;28;20177;-69
2023/04/25 06:17:08;;;;;;;2.73;1.40;;;13.00;35.20;;;;;;5012178;28;20559;-68
2023/04/25 06:19:35;;;;;;;2.70;1.23;;;13.00;32.90;;;;;;5011939;28;20178;-70
2023/04/25 06:22:01;;;;;;;2.63;1.20;;;12.40;35.80;;;;;;5010079;28;20594;-68
2023/04/25 06:24:26;;;;;;;3.00;1.57;;;11.90;37.00;;;;;;5016754;28;20510;-68
2023/04/25 06:26:52;;;;;;;2.60;1.10;;;11.70;37.00;;;;;;5017348;28;20214;-68
2023/04/25 06:29:18;;;;;;;2.70;1.10;;;12.10;35.90;;;;;;5025730;28;20199;-69
2023/04/25 06:31:43;;;;;;;2.70;1.20;;;12.60;36.50;;;;;;5020173;28;20420;-70
2023/04/25 06:34:09;;;;;;;3.23;1.73;;;12.80;35.00;;;;;;5016194;28;20256;-69
2023/04/25 06:36:34;;;;;;;2.83;1.30;;;13.10;35.20;;;;;;5009936;28;20201;-69
2023/04/25 06:39:00;;;;;;;3.40;1.47;;;11.90;37.40;;;;;;5007518;28;20565;-68
2023/04/25 06:41:26;;;;;;;2.60;1.10;;;12.10;36.40;;;;;;5012766;28;20209;-68
2023/04/25 06:43:51;;;;;;;5.90;1.93;;;12.00;37.00;;;;;;5004012;28;20174;-67
2023/04/25 06:46:17;;;;;;;2.70;1.20;;;12.20;35.60;;;;;;5017632;28;20212;-69
2023/04/25 06:48:43;;;;;;;2.63;1.20;;;12.10;36.20;;;;;;5013852;28;20256;-70
2023/04/25 06:51:08;;;;;;;3.67;1.70;;;12.30;36.10;;;;;;5023531;28;20648;-68
2023/04/25 06:53:34;;;;;;;2.80;1.30;;;12.50;35.30;;;;;;5007923;28;20768;-70
2023/04/25 06:55:59;;;;;;;2.90;1.50;;;12.10;35.60;;;;;;5011880;28;20203;-71
2023/04/25 06:58:26;;;;;;;2.70;1.20;;;11.90;35.40;;;;;;5008108;28;20229;-72
2023/04/25 07:00:51;;;;;;;4.50;1.63;;;11.70;37.10;;;;;;5011066;28;20176;-71
2023/04/25 07:03:17;;;;;;;2.80;1.33;;;11.90;36.50;;;;;;5012318;28;20416;-73
2023/04/25 07:05:43;;;;;;;2.70;1.20;;;12.10;35.50;;;;;;5011223;28;20272;-71
2023/04/25 07:08:08;;;;;;;5.70;2.13;;;12.00;36.30;;;;;;5020675;28;20204;-72
2023/04/25 07:10:34;;;;;;;2.70;1.20;;;12.30;34.50;;;;;;5006646;28;20247;-71
2023/04/25 07:13:00;;;;;;;2.90;1.40;;;11.90;37.50;;;;;;5007588;28;20186;-71
2023/04/25 07:15:26;;;;;;;2.70;1.20;;;11.70;38.70;;;;;;5019918;28;20518;-71
2023/04/25 07:17:51;;;;;;;3.00;1.40;;;12.10;41.00;;;;;;5031114;28;20199;-73
2023/04/25 07:20:17;;;;;;;2.70;1.20;;;12.30;38.80;;;;;;5004863;28;20187;-72
2023/04/25 07:22:43;;;;;;;2.80;1.40;;;11.50;38.80;;;;;;5023905;28;20656;-71
2023/04/25 07:25:09;;;;;;;4.50;1.60;;;11.70;40.00;;;;;;5003593;28;20664;-71
2023/04/25 07:27:35;;;;;;;2.80;1.27;;;11.50;40.50;;;;;;5012995;28;20970;-68
2023/04/25 07:30:01;;;;;;;2.70;1.20;;;11.70;41.10;;;;;;5015568;28;20464;-68
2023/04/25 07:32:26;;;;;;;2.73;1.20;;;11.60;42.30;;;;;;5021785;28;20258;-68
2023/04/25 07:34:52;;;;;;;2.77;1.20;;;12.20;42.80;;;;;;5019258;28;20239;-71
2023/04/25 07:37:18;;;;;;;2.80;1.20;;;12.20;40.40;;;;;;5012737;28;20193;-68
2023/04/25 07:39:45;;;;;;;2.80;1.20;;;12.20;39.60;;;;;;5010282;28;20669;-68
2023/04/25 07:42:11;;;;;;;3.20;1.60;;;12.00;40.00;;;;;;5002102;28;20429;-72
2023/04/25 07:44:40;;;;;;;2.80;1.20;;;12.00;41.90;;;;;;5000692;28;20439;-67
2023/04/25 07:47:09;;;;;;;2.80;1.30;;;12.50;42.80;;;;;;5001520;28;20227;-68
2023/04/25 07:49:36;;;;;;;2.80;1.23;;;12.60;41.50;;;;;;5022188;28;20853;-69
2023/04/25 07:52:02;;;;;;;2.80;1.30;;;12.40;39.50;;;;;;5028596;28;20906;-67
2023/04/25 07:54:28;;;;;;;3.47;1.73;;;12.00;40.60;;;;;;5009396;28;20935;-66
2023/04/25 07:56:54;;;;;;;2.83;1.33;;;11.90;42.20;;;;;;5004525;28;20498;-70
2023/04/25 07:59:20;;;;;;;3.00;1.40;;;12.00;41.90;;;;;;5015188;28;20173;-67
2023/04/25 08:01:45;;;;;;;2.70;1.20;;;12.40;42.50;;;;;;5021996;28;20176;-67
2023/04/25 08:04:11;;;;;;;2.80;1.30;;;12.40;41.70;;;;;;5014945;28;20463;-71
2023/04/25 08:06:36;;;;;;;2.80;1.23;;;12.10;42.90;;;;;;5012357;28;20232;-66
2023/04/25 08:09:02;;;;;;;2.90;1.30;;;11.70;45.20;;;;;;5023593;28;20202;-66
2023/04/25 08:11:28;;;;;;;4.10;1.70;;;12.00;44.60;;;;;;5013797;28;20182;-67
2023/04/25 08:13:54;;;;;;;2.90;1.30;;;12.30;43.80;;;;;;5008048;28;20483;-67
2023/04/25 08:16:20;;;;;;;4.70;1.53;;;12.00;42.80;;;;;;5016920;28;20539;-67
2023/04/25 08:18:45;;;;;;;2.97;1.37;;;11.60;46.80;;;;;;5018148;28;20546;-69
2023/04/25 08:21:12;;;;;;;4.03;1.97;;;11.50;48.80;;;;;;5013843;28;20186;-66
2023/04/25 08:23:38;;;;;;;2.83;1.27;;;11.80;46.60;;;;;;5015969;28;20189;-70
2023/04/25 08:26:04;;;;;;;3.57;1.60;;;11.70;46.60;;;;;;5026197;28;20444;-69
2023/04/25 08:28:30;;;;;;;2.90;1.20;;;11.80;46.40;;;;;;5015506;28;20436;-67
2023/04/25 08:30:56;;;;;;;2.90;1.20;;;12.20;47.00;;;;;;5014726;28;20408;-69
2023/04/25 08:33:21;;;;;;;3.47;1.73;;;12.20;45.00;;;;;;5023063;28;20180;-68
2023/04/25 08:35:47;;;;;;;2.80;1.17;;;11.70;46.30;;;;;;5022554;28;20224;-67
2023/04/25 08:38:12;;;;;;;2.80;1.20;;;11.50;47.30;;;;;;5015535;28;20256;-66
2023/04/25 08:40:39;;;;;;;2.80;1.20;;;11.80;47.00;;;;;;5015307;28;20550;-69
2023/04/25 08:43:11;;;;;;;3.40;1.57;;;12.10;46.50;;;;;;5019220;28;20176;-69
2023/04/25 08:45:41;;;;;;;2.87;1.20;;;11.70;47.10;;;;;;5020083;28;20427;-73
2023/04/25 08:48:12;;;;;;;3.20;1.40;;;12.00;45.70;;;;;;5016760;28;20513;-68
2023/04/25 08:50:50;;;;;;;3.00;1.20;;;11.90;45.00;;;;;;5021186;28;20456;-71
2023/04/25 08:53:19;;;;;;;2.97;1.20;;;11.80;46.30;;;;;;5004262;28;20422;-70
2023/04/25 08:55:46;;;;;;;2.87;1.10;;;12.10;45.40;;;;;;5018836;28;20411;-70
2023/04/25 08:58:12;;;;;;;3.40;1.50;;;12.00;46.80;;;;;;5025731;28;20482;-67
2023/04/25 09:00:38;;;;;;;2.90;1.10;;;12.50;47.10;;;;;;5026098;28;20478;-68
2023/04/25 09:03:05;;;;;;;3.10;1.30;;;12.70;44.40;;;;;;5017994;28;20519;-67
2023/04/25 09:05:32;;;;;;;3.40;1.30;;;12.90;44.50;;;;;;5009758;28;20439;-67
2023/04/25 09:07:58;;;;;;;3.13;1.30;;;12.80;44.10;;;;;;5020606;28;20466;-67
2023/04/25 09:10:23;;;;;;;3.23;1.40;;;12.80;44.40;;;;;;5012300;28;20496;-68
2023/04/25 09:13:10;;;;;;;3.00;1.20;;;13.00;42.50;;;;;;5024196;28;20181;-67
2023/04/25 09:16:05;;;;;;;3.40;1.47;;;12.80;40.10;;;;;;5012624;28;20198;-68
2023/04/25 09:18:33;;;;;;;3.10;1.20;;;12.80;41.00;;;;;;4990578;28;20429;-68
2023/04/25 09:21:06;;;;;;;3.10;1.30;;;12.20;40.40;;;;;;4992915;28;20433;-66
2023/04/25 09:23:44;;;;;;;3.00;1.20;;;12.20;42.60;;;;;;4986056;28;20471;-67
2023/04/25 09:26:13;;;;;;;3.10;1.20;;;11.90;42.70;;;;;;5006403;28;20474;-67
2023/04/25 09:28:39;;;;;;;3.10;1.30;;;12.10;45.10;;;;;;5011731;28;20457;-68
2023/04/25 09:31:05;;;;;;;3.10;1.30;;;12.50;42.70;;;;;;4992671;28;20492;-68
2023/04/25 09:33:35;;;;;;;3.00;1.20;;;13.00;44.50;;;;;;4982671;28;20181;-68
2023/04/25 09:36:10;;;;;;;3.00;1.17;;;12.60;42.20;;;;;;5018852;28;20464;-68
2023/04/25 09:38:44;;;;;;;3.10;1.30;;;12.10;42.10;;;;;;4995561;28;20805;-68
2023/04/25 09:41:10;;;;;;;3.20;1.30;;;11.30;44.40;;;;;;4995680;28;20497;-68
2023/04/25 09:43:36;;;;;;;2.90;1.10;;;11.30;43.70;;;;;;4987754;28;21012;-67
2023/04/25 09:46:07;;;;;;;4.50;2.50;;;11.20;44.80;;;;;;4994022;28;20504;-67
2023/04/25 09:48:32;;;;;;;2.90;1.10;;;10.80;44.30;;;;;;5004371;28;20459;-67
2023/04/25 09:51:04;;;;;;;2.93;1.20;;;10.50;49.60;;;;;;4993294;28;20180;-68
2023/04/25 09:53:31;;;;;;;3.03;1.20;;;10.90;46.60;;;;;;4987707;28;20593;-68
2023/04/25 09:56:00;;;;;;;3.10;1.30;;;10.80;49.00;;;;;;5023659;28;20950;-66
2023/04/25 09:58:29;;;;;;;3.10;1.40;;;10.80;49.30;;;;;;5019451;28;20433;-72
2023/04/25 10:00:58;;;;;;;3.03;1.20;;;11.10;44.90;;;;;;5007180;28;20432;-67
2023/04/25 10:03:26;;;;;;;2.92;1.10;;;11.10;44.10;;;;;;5015155;28;20871;-66
2023/04/25 10:05:53;;;;;;;3.03;1.20;;;10.90;44.30;;;;;;5022248;28;20176;-66
2023/04/25 10:08:19;;;;;;;3.10;1.30;;;10.80;45.10;;;;;;5016430;28;20203;-67
2023/04/25 10:10:47;;;;;;;3.05;1.10;;;10.70;47.80;;;;;;5025388;28;20249;-68
2023/04/25 10:13:14;;;;;;;3.10;1.30;;;10.80;48.20;;;;;;5032746;28;20161;-68
2023/04/25 10:15:41;;;;;;;3.10;1.20;;;10.90;44.00;;;;;;5016647;28;20425;-68
2023/04/25 10:18:07;;;;;;;3.10;1.17;;;10.80;45.40;;;;;;5004294;28;20453;-69
2023/04/25 10:20:32;;;;;;;3.10;1.20;;;10.80;46.20;;;;;;5020410;28;20203;-67
2023/04/25 10:23:12;;;;;;;3.07;1.20;;;10.20;51.80;;;;;;5018157;28;20173;-70
2023/04/25 10:25:40;;;;;;;3.58;1.42;;;9.90;54.50;;;;;;5013504;28;20195;-67
2023/04/25 10:28:05;;;;;;;3.20;1.27;;;10.00;52.60;;;;;;5042816;23;20310;-73
2023/04/25 10:30:31;;;;;;;3.30;1.40;;;9.80;54.30;;;;;;5026981;28;20524;-74
2023/04/25 10:32:59;;;;;;;3.20;1.20;;;9.40;56.00;;;;;;5030391;28;20668;-73
2023/04/25 10:35:28;;;;;;;3.17;1.20;;;8.70;60.20;;;;;;5030096;28;20172;-73
2023/04/25 10:38:05;;;;;;;3.10;1.10;;;8.60;59.20;;;;;;5014994;28;20307;-73
2023/04/25 10:40:32;;;;;;;3.30;1.30;;;8.50;61.60;;;;;;5006896;28;20172;-72
2023/04/25 10:43:37;;;;;;;3.28;1.20;;;8.80;63.90;;;;;;5007465;28;20592;-74
2023/04/25 10:46:12;;;;;;;3.28;1.25;;;9.00;56.00;;;;;;5006350;28;20217;-73
2023/04/25 10:48:53;;;;;;;4.00;1.50;;;8.60;57.60;;;;;;5009448;28;20679;-73
2023/04/25 10:51:27;;;;;;;3.10;1.20;;;8.50;58.20;;;;;;5009145;28;20679;-73
2023/04/25 10:54:12;;;;;;;3.17;1.17;;;8.30;58.00;;;;;;5008772;28;20195;-73
2023/04/25 10:56:41;;;;;;;3.53;1.40;;;9.40;52.50;;;;;;5011494;28;20246;-74
2023/04/25 10:59:15;;;;;;;3.30;1.23;;;9.30;50.10;;;;;;5009993;28;20181;-72
2023/04/25 11:01:43;;;;;;;3.80;1.25;;;9.20;52.80;;;;;;5011823;28;20187;-74
2023/04/25 11:04:25;;;;;;;4.60;1.60;;;9.30;51.60;;;;;;5011223;28;20184;-72
2023/04/25 11:07:26;;;;;;;3.80;1.25;;;9.90;50.20;;;;;;5012381;28;20764;-73
2023/04/25 11:09:52;;;;;;;3.88;1.20;;;10.10;48.30;;;;;;5007202;28;20418;-73
2023/04/25 11:12:18;;;;;;;3.90;1.20;;;10.80;45.30;;;;;;5002558;28;20189;-73
2023/04/25 11:14:43;;;;;;;3.87;1.20;;;11.00;44.40;;;;;;5011133;28;20177;-75
2023/04/25 11:17:10;;;;;;;3.90;1.20;;;11.00;42.80;;;;;;5011979;28;20287;-74
2023/04/25 11:19:36;;;;;;;3.90;1.30;;;11.00;43.30;;;;;;5009271;28;20208;-74
2023/04/25 11:22:03;;;;;;;3.90;1.30;;;10.60;43.00;;;;;;4997524;28;20776;-74
2023/04/25 11:24:30;;;;;;;3.80;1.20;;;10.30;43.00;;;;;;5001054;28;20180;-75
2023/04/25 11:26:56;;;;;;;3.90;1.30;;;10.00;44.60;;;;;;5011913;28;20269;-73
2023/04/25 11:29:23;;;;;;;3.80;1.20;;;10.50;46.10;;;;;;5010867;28;20289;-74
2023/04/25 11:31:49;;;;;;;4.20;1.30;;;10.40;44.30;;;;;;5011819;28;20171;-76
2023/04/25 11:34:20;;;;;;;3.77;1.20;;;9.80;48.50;;;;;;5009447;28;20440;-75
2023/04/25 11:36:46;;;;;;;3.75;1.27;;;9.60;46.90;;;;;;5002813;28;20277;-76
2023/04/25 11:39:12;;;;;;;3.80;1.20;;;9.90;47.20;;;;;;5011207;28;20653;-76
2023/04/25 11:41:38;;;;;;;3.80;1.30;;;10.30;47.70;;;;;;5010864;28;20185;-75
2023/04/25 11:44:04;;;;;;;4.00;1.30;;;10.80;45.40;;;;;;5008754;28;20458;-74
2023/04/25 11:46:30;;;;;;;3.90;1.23;;;10.60;43.90;;;;;;5008960;28;20215;-75
2023/04/25 11:48:57;;;;;;;3.90;1.30;;;10.20;44.80;;;;;;5011447;28;20460;-77
2023/04/25 11:51:23;;;;;;;3.88;1.23;;;10.20;45.10;;;;;;5011875;28;20508;-76
2023/04/25 11:53:48;;;;;;;3.87;1.20;;;10.20;43.30;;;;;;5009837;28;20211;-76
2023/04/25 11:56:14;;;;;;;4.00;1.30;;;10.10;48.60;;;;;;5011315;28;20220;-76
2023/04/25 11:58:56;;;;;;;3.90;1.20;;;9.50;49.10;;;;;;5007494;28;20180;-75
2023/04/25 12:01:26;;;;;;;4.00;1.42;;;10.20;48.60;;;;;;5009174;28;20684;-76
2023/04/25 12:03:52;;;;;;;3.97;1.35;;;10.40;44.40;;;;;;5011476;28;20195;-75
2023/04/25 12:06:18;;;;;;;3.97;1.30;;;10.80;44.70;;;;;;5014408;28;20188;-75
2023/04/25 12:09:03;;;;;;;4.10;1.40;;;11.00;43.80;;;;;;5014863;28;20192;-74
2023/04/25 12:11:31;;;;;;;4.00;1.43;;;11.30;44.10;;;;;;5013997;28;20176;-75
2023/04/25 12:14:02;;;;;;;3.70;1.30;;;11.90;39.90;;;;;;5012115;28;20505;-77
2023/04/25 12:16:27;;;;;;;3.40;1.30;;;12.10;41.80;;;;;;5013274;28;20452;-75
2023/04/25 12:18:53;;;;;;;3.20;1.30;;;12.40;39.90;;;;;;5014723;28;20423;-75
2023/04/25 12:21:20;;;;;;;3.00;1.40;;;12.50;41.40;;;;;;5012560;28;20173;-75
2023/04/25 12:23:46;;;;;;;2.70;1.27;;;12.40;41.20;;;;;;5008506;28;20194;-75
2023/04/25 12:26:11;;;;;;;2.60;1.20;;;12.20;41.70;;;;;;5011679;28;20424;-75
2023/04/25 12:28:37;;;;;;;2.70;1.37;;;12.30;42.20;;;;;;5014281;28;20228;-75
2023/04/25 12:31:04;;;;;;;2.50;1.30;;;12.90;40.00;;;;;;5012721;28;20232;-76
2023/04/25 12:33:37;;;;;;;2.40;1.20;;;13.10;40.50;;;;;;5011481;28;20603;-74
2023/04/25 12:36:11;;;;;;;2.40;1.20;;;13.50;41.40;;;;;;5010421;28;20445;-75
2023/04/25 12:38:41;;;;;;;2.30;1.20;;;13.20;38.50;;;;;;5011729;28;20420;-75
2023/04/25 12:41:07;;;;;;;2.30;1.20;;;13.00;40.40;;;;;;5009667;28;20425;-74
2023/04/25 12:43:33;;;;;;;2.40;1.30;;;12.50;41.50;;;;;;5012889;28;20435;-74
2023/04/25 12:45:59;;;;;;;2.37;1.27;;;12.80;41.80;;;;;;5014258;28;20821;-74
2023/04/25 12:48:25;;;;;;;2.30;1.10;;;13.30;40.70;;;;;;5014539;28;20174;-74